Historique des stations

Station météo de Salbris

Altitude de la station : 113 m







Données météorologiques pour le 03/08/2021
Date
Heure
Températures Humidité Point de rosée Vitesse
du vent
Direction Rafales Windchill Pression Pluviométrie
Cumul
Date
Heure
Températures Humidité Point de rosée Vitesse
du vent
Direction Rafales Windchill Pression Pluviométrie
Cumul
03/08/2021 15:2916.9 °C89 %15.0 °C3 km/hN13 km/h16.7 1017 hPa1 mm
03/08/2021 15:1416.8 °C90 %15.0 °C5 km/hN10 km/h16.7 1017 hPa1 mm
03/08/2021 14:5916.6 °C90 %15.0 °C6 km/hN10 km/h16.7 1017 hPa0.8 mm
03/08/2021 14:4416.3 °C91 %15.0 °C-N10 km/h16.1 1017 hPa0.8 mm
03/08/2021 14:2916.0 °C91 %14.4 °C-N13 km/h16.1 1017 hPa0.8 mm
03/08/2021 14:1416.0 °C91 %14.4 °C3 km/hN10 km/h16.1 1017 hPa0.6 mm
03/08/2021 13:5916.4 °C89 %14.4 °C3 km/hN6 km/h16.7 1017 hPa0.4 mm
03/08/2021 13:4416.8 °C86 %14.4 °C5 km/hN14 km/h16.7 1017 hPa0.2 mm
03/08/2021 13:2917.6 °C80 %13.9 °C-N16 km/h17.8 1017 hPa-
03/08/2021 13:1418.2 °C75 %13.9 °C5 km/hN18 km/h18.3 1017 hPa-
03/08/2021 12:5918.0 °C75 %13.3 °C8 km/hN19 km/h17.8 1017 hPa-
03/08/2021 12:4418.2 °C74 %13.3 °C5 km/hN13 km/h18.3 1017 hPa-
03/08/2021 12:2918.5 °C73 %13.3 °C8 km/hN18 km/h18.3 1017 hPa-
03/08/2021 12:1418.6 °C73 %13.9 °C8 km/hN19 km/h18.9 1017 hPa-
03/08/2021 12:0018.4 °C73 %13.3 °C10 km/hN18 km/h18.3 1017 hPa-
03/08/2021 11:4518.6 °C72 %13.3 °C5 km/hN16 km/h18.9 1017 hPa-
03/08/2021 11:3018.7 °C71 %13.3 °C13 km/hN16 km/h18.3 1016 hPa-
03/08/2021 11:1418.3 °C73 %13.3 °C5 km/hN16 km/h18.3 1016 hPa-
03/08/2021 10:5917.8 °C74 %13.3 °C3 km/hN18 km/h17.8 1016 hPa-
03/08/2021 10:4418.0 °C77 %13.9 °C6 km/hN14 km/h17.8 1016 hPa-
03/08/2021 10:2917.4 °C78 %13.3 °C5 km/hN14 km/h17.2 1016 hPa-
03/08/2021 10:1417.1 °C80 %13.3 °C10 km/hN16 km/h17.2 1016 hPa-
03/08/2021 09:5917.2 °C80 %13.9 °C5 km/hN14 km/h17.2 1016 hPa-
03/08/2021 09:4416.6 °C83 %13.9 °C8 km/hN14 km/h16.7 1016 hPa-
03/08/2021 09:2916.2 °C85 %13.9 °C3 km/hN8 km/h16.1 1016 hPa-
03/08/2021 09:1415.8 °C87 %13.9 °C2 km/hN14 km/h15.6 1016 hPa-
03/08/2021 08:5915.6 °C87 %13.3 °C5 km/hN10 km/h15.6 1016 hPa-
03/08/2021 08:4415.4 °C87 %13.3 °C2 km/hN13 km/h15.6 1016 hPa-
03/08/2021 08:2915.2 °C88 %13.3 °C3 km/hN13 km/h15.0 1016 hPa-
03/08/2021 08:1414.9 °C90 %13.3 °C2 km/hN10 km/h15.0 1016 hPa-
03/08/2021 07:5914.7 °C91 %13.3 °C2 km/hN8 km/h14.4 1016 hPa-
03/08/2021 07:4414.6 °C92 %13.3 °C-N8 km/h14.4 1016 hPa-
03/08/2021 07:2914.4 °C92 %13.3 °C-N6 km/h14.4 1016 hPa-
03/08/2021 07:1414.4 °C92 %13.3 °C2 km/hN5 km/h14.4 1016 hPa-
03/08/2021 06:5914.6 °C91 %13.3 °C-N3 km/h14.4 1016 hPa-
03/08/2021 06:4414.8 °C91 %13.3 °C-N3 km/h15.0 1016 hPa-
03/08/2021 06:2915.1 °C91 %13.9 °C2 km/hN5 km/h15.0 1016 hPa-
03/08/2021 06:1415.3 °C91 %13.9 °C2 km/hN8 km/h15.6 1016 hPa-
03/08/2021 05:5915.4 °C91 %13.9 °C3 km/hN10 km/h15.6 1016 hPa-
03/08/2021 05:4415.6 °C91 %13.9 °C2 km/hN8 km/h15.6 1016 hPa-
03/08/2021 05:2915.6 °C91 %14.4 °C2 km/hN10 km/h15.6 1016 hPa-
03/08/2021 05:1415.7 °C91 %14.4 °C2 km/hN5 km/h15.6 1016 hPa-
03/08/2021 04:5915.8 °C92 %14.4 °C-N13 km/h15.6 1016 hPa-
03/08/2021 04:4415.8 °C92 %14.4 °C3 km/hN10 km/h15.6 1016 hPa-
03/08/2021 04:2915.8 °C92 %14.4 °C8 km/hN8 km/h15.6 1016 hPa-
03/08/2021 04:1415.8 °C92 %14.4 °C-N8 km/h15.6 1016 hPa-
03/08/2021 03:5915.8 °C93 %14.4 °C3 km/hN8 km/h15.6 1016 hPa-
03/08/2021 03:4415.8 °C93 %14.4 °C3 km/hN6 km/h15.6 1016 hPa-
03/08/2021 03:2915.8 °C93 %15.0 °C-N6 km/h16.1 1016 hPa-
03/08/2021 03:1415.8 °C93 %15.0 °C2 km/hN5 km/h16.1 1016 hPa-
03/08/2021 02:5915.8 °C93 %15.0 °C3 km/hN6 km/h16.1 1016 hPa-
03/08/2021 02:4415.8 °C93 %14.4 °C-N3 km/h15.6 1016 hPa-
03/08/2021 02:2915.8 °C93 %14.4 °C-N5 km/h15.6 1016 hPa-
03/08/2021 02:1415.8 °C93 %15.0 °C-N3 km/h16.1 1016 hPa-
03/08/2021 01:5915.9 °C92 %14.4 °C-N6 km/h16.1 1016 hPa-
03/08/2021 01:4416.0 °C92 %15.0 °C3 km/hN6 km/h16.1 1017 hPa-
03/08/2021 01:2916.2 °C92 %15.0 °C-N3 km/h16.1 1017 hPa-
03/08/2021 01:1416.2 °C92 %15.0 °C---16.1 1017 hPa-
03/08/2021 00:5916.3 °C91 %15.0 °C2 km/hN8 km/h16.1 1017 hPa-
03/08/2021 00:4416.4 °C91 %15.0 °C3 km/hN8 km/h16.7 1017 hPa-
03/08/2021 00:2916.4 °C90 %15.0 °C-N6 km/h16.7 1017 hPa-
03/08/2021 00:1416.4 °C90 %15.0 °C-N6 km/h16.7 1017 hPa-


Minima :

Température : 14.4 °C
Humidité : 71 %
Point de rosée : 13.3 °C
Vent moyen : 2 km/h
Windchill : 14.4
Pression atm. : 1016 hPa
Maxima :

Température : 18.7 °C
Humidité : 93 %
Point de rosée : 15.0 °C
Vent moyen : 13 km/h
Windchill : 18.9
Pression atm. : 1017 hPa
Rafales max : 19 km/h
Cumul de pluie sur 24H : 1 mm

Salbris est une commune du département Loir-et-Cher (41).
La station météorologique du réseau de l'association la plus proche de Salbris est celle de Orçay



Icône Facebook Association Météo Centre Icône Twitter Association Météo Centre Icône Chaîne Youtube Association Météo Centre Icône contact Association Météo Centre Icône Insta Association Météo Centre